Pipestone, MN (56164)

6:09 PM CST on December 07, 2016 (GMT -0600)
Pipestone Municipal | | Change Station

Elev 1736 ft 43.98 °N, 96.30 °W | Updated 55 minutes ago

Scattered Clouds
Scattered Clouds
12 °F
Feels Like -6 °F
N
21
Wind Variable Wind from NW
Gusts 31 mph

Today
High -- | Low -- °F
--% Chance of Precip.
Yesterday
High -- | Low -- °F
Precip. -- in
Pressure 30.21 in
Visibility 10.0 miles
Clouds Scattered Clouds 1700 ft
Windchill -6 °F
Dew Point 5 °F
Humidity 73%
Rainfall 0.00 in
Snow Depth Not available.
7:46 AM 4:47 PM
First Quarter, 57% visible
METAR KPQN 072314Z AUTO 31018G27KT 10SM SCT017 M11/M15 A3021 RMK AO2
Pressure 30.21 in
Visibility 10.0 miles
Clouds Scattered Clouds 1700 ft
Windchill -6 °F
Dew Point 5 °F
Humidity 73%
Rainfall 0.00 in
Snow Depth Not available.
7:46 AM 4:47 PM
First Quarter, 57% visible
METAR KPQN 072314Z AUTO 31018G27KT 10SM SCT017 M11/M15 A3021 RMK AO2

10-Day Weather Forecast

Almanac

Astronomy

Dec. 07, 2016 Rise Set
Actual Time
Civil Twilight
Nautical Twilight
Astronomical Twilight
Moon
Length of Visible Light
Length of Day
Tomorrow will be .
, % of the Moon is Illuminated

Today's Extremes

State Highs State Lows

Community

WunderPhotos

Upload Photos

1,956,221 photos uploaded!

WunderBlog® & News

Nearby

Air Quality

  Air Quality AQ Index Pollutant
Not available.

Snow Depth

Station Depth Elevation

Earthquake Activity

City Distance Mag. Time & Date
Minimum magnitude displayed is 2.5.

Coastal Water Temperatures

Place Temperature

Stations

Nearby Weather Stations

Station Location Temp. Windchill Dew Point Humidity Wind Precip. Elev Updated Type
                   

Watches & Warnings

There are currently no watches in effect.